createdAt,value
2023-03-15T00:00:50.369Z,4.82
2023-03-15T00:03:17.366Z,6.45
2023-03-15T00:05:45.340Z,3.55
2023-03-15T00:08:12.400Z,1.75
2023-03-15T00:10:43.093Z,3.60
2023-03-15T00:13:10.450Z,4.30
2023-03-15T00:15:37.449Z,6.95
2023-03-15T00:18:04.426Z,2.30
2023-03-15T00:20:31.611Z,2.50
2023-03-15T00:22:58.616Z,4.13
2023-03-15T00:25:25.808Z,2.60
2023-03-15T00:27:52.948Z,4.38
2023-03-15T00:30:19.995Z,2.80
2023-03-15T00:32:46.972Z,3.17
2023-03-15T00:35:14.093Z,4.15
2023-03-15T00:37:41.473Z,2.80
2023-03-15T00:40:09.218Z,2.90
2023-03-15T00:42:36.326Z,4.22
2023-03-15T00:45:03.529Z,2.63
2023-03-15T00:47:30.516Z,2.78
2023-03-15T00:49:57.504Z,3.22
2023-03-15T00:52:24.754Z,4.50
2023-03-15T00:54:53.378Z,5.07
2023-03-15T00:57:20.510Z,6.20
2023-03-15T00:59:47.638Z,3.40
2023-03-15T01:02:14.700Z,4.88
2023-03-15T01:04:41.662Z,3.05
2023-03-15T01:07:08.636Z,5.60
2023-03-15T01:09:35.568Z,3.80
2023-03-15T01:12:02.629Z,3.55
2023-03-15T01:14:31.710Z,4.70
2023-03-15T01:16:58.898Z,3.88
2023-03-15T01:19:25.842Z,3.58
2023-03-15T01:21:53.569Z,4.88
2023-03-15T01:24:20.635Z,3.92
2023-03-15T01:26:50.100Z,3.13
2023-03-15T01:29:18.141Z,4.55
2023-03-15T01:31:45.404Z,4.60
2023-03-15T01:34:12.562Z,3.33
2023-03-15T01:36:39.529Z,3.22
2023-03-15T01:39:06.671Z,4.97
2023-03-15T01:41:41.128Z,3.97
2023-03-15T01:44:15.437Z,4.10
2023-03-15T01:46:43.851Z,5.30
2023-03-15T01:49:32.747Z,2.58
2023-03-15T01:52:06.490Z,2.53
2023-03-15T01:54:42.540Z,3.90
2023-03-15T01:57:25.385Z,3.15
2023-03-15T02:00:16.702Z,3.35
2023-03-15T02:03:04.189Z,4.68
2023-03-15T02:05:35.716Z,3.35
2023-03-15T02:08:06.027Z,2.85
2023-03-15T02:10:40.843Z,4.00
2023-03-15T02:13:08.305Z,4.20
2023-03-15T02:15:35.531Z,2.75
2023-03-15T02:18:05.477Z,3.97
2023-03-15T02:20:38.328Z,4.10
2023-03-15T02:26:16.726Z,4.28
2023-03-15T02:28:43.772Z,5.95
2023-03-15T02:31:12.439Z,4.30
2023-03-15T02:33:42.007Z,3.45
2023-03-15T02:36:11.663Z,3.42
2023-03-15T02:38:38.706Z,5.07
2023-03-15T02:41:05.850Z,4.85
2023-03-15T02:43:34.342Z,4.60
2023-03-15T02:46:02.088Z,5.38
2023-03-15T02:48:31.462Z,5.45
2023-03-15T02:50:58.731Z,5.00
2023-03-15T02:53:26.208Z,4.88
2023-03-15T02:55:53.425Z,3.55
2023-03-15T02:58:20.486Z,6.00
2023-03-15T03:00:48.864Z,8.02
2023-03-15T03:03:18.702Z,5.22
2023-03-15T03:05:45.732Z,5.03
2023-03-15T03:08:16.429Z,5.38
2023-03-15T03:10:43.902Z,7.25
2023-03-15T03:13:10.893Z,5.85
2023-03-15T03:15:39.605Z,5.78
2023-03-15T03:18:06.655Z,5.13
2023-03-15T03:20:33.786Z,6.47
2023-03-15T03:23:05.926Z,4.97
2023-03-15T03:25:33.778Z,6.32
2023-03-15T03:28:04.066Z,8.13
2023-03-15T03:30:31.678Z,2.25
2023-03-15T03:32:58.879Z,2.97
2023-03-15T03:35:26.069Z,4.65
2023-03-15T03:37:53.919Z,3.80
2023-03-15T03:40:27.050Z,3.45
2023-03-15T03:42:54.228Z,2.30
2023-03-15T03:45:21.347Z,3.78
2023-03-15T03:47:52.205Z,3.65
2023-03-15T03:50:19.191Z,2.33
2023-03-15T03:52:46.186Z,2.47
2023-03-15T03:55:25.334Z,1.55
2023-03-15T03:57:53.818Z,2.47
2023-03-15T04:00:36.851Z,1.48
2023-03-15T04:03:04.972Z,2.72
2023-03-15T04:05:34.854Z,0.93
2023-03-15T04:08:01.947Z,0.95
2023-03-15T04:10:35.189Z,3.20
2023-03-15T04:13:03.237Z,3.08
2023-03-15T04:15:31.561Z,2.20
2023-03-15T04:17:59.582Z,2.92
2023-03-15T04:20:35.500Z,1.08
2023-03-15T04:23:03.323Z,2.67
2023-03-15T04:26:08.770Z,2.95
2023-03-15T04:28:57.092Z,2.47
2023-03-15T04:31:47.025Z,2.15
2023-03-15T04:34:30.311Z,4.53
2023-03-15T04:36:57.379Z,1.95
2023-03-15T04:42:30.641Z,2.65
2023-03-15T04:48:13.859Z,3.85
2023-03-15T04:50:58.095Z,3.20
2023-03-15T04:56:39.482Z,4.15
2023-03-15T04:59:18.046Z,3.55
2023-03-15T05:02:04.130Z,4.30
2023-03-15T05:04:37.150Z,2.45
2023-03-15T05:07:30.481Z,5.30
2023-03-15T05:10:17.521Z,6.55
2023-03-15T05:13:19.145Z,4.30
2023-03-15T05:15:57.831Z,6.38
2023-03-15T05:18:57.663Z,4.55
2023-03-15T05:21:35.107Z,7.43
2023-03-15T05:24:22.423Z,7.18
2023-03-15T05:27:09.747Z,12.80
2023-03-15T05:29:57.113Z,7.15
2023-03-15T05:32:26.869Z,7.38
2023-03-15T05:37:46.819Z,5.65
2023-03-15T05:40:49.197Z,5.40
2023-03-15T05:43:34.515Z,5.85
2023-03-15T05:46:24.784Z,6.63
2023-03-15T05:49:00.193Z,10.73
2023-03-15T05:51:35.387Z,6.50
2023-03-15T05:54:17.380Z,8.68
2023-03-15T05:57:13.630Z,10.18
2023-03-15T06:00:10.898Z,7.50
2023-03-15T06:02:41.608Z,9.02
2023-03-15T06:05:28.974Z,6.68
2023-03-15T06:07:57.053Z,9.55
2023-03-15T06:10:25.709Z,8.27
2023-03-15T06:12:55.531Z,7.75
2023-03-15T06:15:23.657Z,7.93
2023-03-15T06:17:52.238Z,8.93
2023-03-15T06:20:19.397Z,9.45
2023-03-15T06:22:46.335Z,10.48
2023-03-15T06:25:32.304Z,7.72
2023-03-15T06:27:59.578Z,12.25
2023-03-15T06:30:27.052Z,10.75
2023-03-15T06:32:57.689Z,15.38
2023-03-15T06:35:24.905Z,9.52
2023-03-15T06:37:53.108Z,12.48
2023-03-15T06:40:20.172Z,9.48
2023-03-15T06:42:48.224Z,11.75
2023-03-15T06:45:17.839Z,12.18
2023-03-15T06:47:46.022Z,13.15
2023-03-15T06:50:13.765Z,10.60
2023-03-15T06:52:40.964Z,8.32
2023-03-15T06:55:08.530Z,10.85
2023-03-15T06:57:36.086Z,7.82
2023-03-15T07:00:03.420Z,11.77
2023-03-15T07:02:37.072Z,11.98
2023-03-15T07:05:04.804Z,10.30
2023-03-15T07:07:31.752Z,10.88
2023-03-15T07:09:58.727Z,10.45
2023-03-15T07:12:25.762Z,12.00
2023-03-15T07:14:52.696Z,10.32
2023-03-15T07:17:19.776Z,5.60
2023-03-15T07:19:55.817Z,9.93
2023-03-15T07:22:24.053Z,13.00
2023-03-15T07:24:51.528Z,8.65
2023-03-15T07:27:19.571Z,15.23
2023-03-15T07:29:46.677Z,13.50
2023-03-15T07:32:13.753Z,14.65
2023-03-15T07:34:40.876Z,14.88
2023-03-15T07:37:08.111Z,13.00
2023-03-15T07:39:35.381Z,13.30
2023-03-15T07:42:02.546Z,33.10
2023-03-15T07:44:39.019Z,13.02
2023-03-15T07:47:06.199Z,14.95
2023-03-15T07:49:34.687Z,13.63
2023-03-15T07:52:01.829Z,11.00
2023-03-15T07:54:31.710Z,5.40
2023-03-15T07:56:58.756Z,11.90
2023-03-15T07:59:25.828Z,13.77
2023-03-15T08:01:53.009Z,13.35
2023-03-15T08:04:20.160Z,10.73
2023-03-15T08:06:47.135Z,11.20
2023-03-15T08:09:14.140Z,14.02
2023-03-15T08:11:42.148Z,6.53
2023-03-15T08:14:10.710Z,11.48
2023-03-15T08:16:37.827Z,10.02
2023-03-15T08:19:04.832Z,11.20
2023-03-15T08:21:33.884Z,12.43
2023-03-15T08:24:01.229Z,12.68
2023-03-15T08:26:28.235Z,10.38
2023-03-15T08:28:55.321Z,6.60
2023-03-15T08:31:23.393Z,10.15
2023-03-15T08:33:50.516Z,16.05
2023-03-15T08:36:17.631Z,9.75
2023-03-15T08:38:44.660Z,12.68
2023-03-15T08:41:11.726Z,9.25
2023-03-15T08:43:38.696Z,9.40
2023-03-15T08:46:05.814Z,10.55
2023-03-15T08:48:32.850Z,10.23
2023-03-15T08:51:04.349Z,9.07
2023-03-15T08:53:31.524Z,12.88
2023-03-15T08:55:58.681Z,6.65
2023-03-15T08:58:25.878Z,6.85
2023-03-15T09:00:53.334Z,7.80
2023-03-15T09:03:20.636Z,7.95
2023-03-15T09:05:47.729Z,10.80
2023-03-15T09:08:17.019Z,8.57
2023-03-15T09:10:44.493Z,8.95
2023-03-15T09:13:12.348Z,8.70
2023-03-15T09:15:39.389Z,14.30
2023-03-15T09:18:06.493Z,4.90
2023-03-15T09:20:33.536Z,5.68
2023-03-15T09:23:00.889Z,8.00
2023-03-15T09:25:27.907Z,9.98
2023-03-15T09:27:55.726Z,15.00
2023-03-15T09:30:22.768Z,23.73
2023-03-15T09:32:49.944Z,10.63
2023-03-15T09:35:18.884Z,10.70
2023-03-15T09:37:46.328Z,3.60
2023-03-15T09:40:19.397Z,6.47
2023-03-15T09:43:06.320Z,6.18
2023-03-15T09:45:57.837Z,8.13
2023-03-15T09:48:55.481Z,5.88
2023-03-15T09:51:48.079Z,9.95
2023-03-15T09:54:20.588Z,6.78
2023-03-15T09:57:02.462Z,5.97
2023-03-15T09:59:39.014Z,6.68
2023-03-15T10:02:32.540Z,5.70
2023-03-15T10:05:19.138Z,7.60
2023-03-15T10:07:46.285Z,7.35
2023-03-15T10:10:21.163Z,13.43
2023-03-15T10:12:52.553Z,4.63
2023-03-15T10:16:05.977Z,6.05
2023-03-15T10:18:44.261Z,9.13
2023-03-15T10:21:13.647Z,7.53
2023-03-15T10:23:55.973Z,5.50
2023-03-15T10:26:32.912Z,6.63
2023-03-15T10:29:01.209Z,7.20
2023-03-15T10:31:41.394Z,7.40
2023-03-15T10:34:14.058Z,7.20
2023-03-15T10:36:54.382Z,6.68
2023-03-15T10:39:22.356Z,4.68
2023-03-15T10:41:50.271Z,5.40
2023-03-15T10:44:24.682Z,5.85
2023-03-15T10:47:21.388Z,7.28
2023-03-15T10:49:50.930Z,7.00
2023-03-15T10:52:44.669Z,4.80
2023-03-15T10:55:16.606Z,4.55
2023-03-15T10:57:55.120Z,8.70
2023-03-15T11:00:31.234Z,2.92
2023-03-15T11:03:16.124Z,9.00
2023-03-15T11:05:47.822Z,10.75
2023-03-15T11:08:22.704Z,7.50
2023-03-15T11:10:59.822Z,5.00
2023-03-15T11:13:28.257Z,5.72
2023-03-15T11:15:56.868Z,10.95
2023-03-15T11:18:38.148Z,5.38
2023-03-15T11:21:07.288Z,5.25
2023-03-15T11:23:39.059Z,6.13
2023-03-15T11:26:08.610Z,4.82
2023-03-15T11:28:36.711Z,4.15
2023-03-15T11:31:04.752Z,6.35
2023-03-15T11:33:58.607Z,5.20
2023-03-15T11:36:27.874Z,4.25
2023-03-15T11:38:55.108Z,2.67
2023-03-15T11:41:21.992Z,7.90
2023-03-15T11:43:52.224Z,3.25
2023-03-15T11:46:41.046Z,5.15
2023-03-15T11:49:45.769Z,2.50
2023-03-15T11:52:12.969Z,4.60
2023-03-15T11:54:40.181Z,3.35
2023-03-15T11:57:27.796Z,4.18
2023-03-15T11:59:57.970Z,6.15
2023-03-15T12:02:26.453Z,7.07
2023-03-15T12:04:54.584Z,7.80
2023-03-15T12:07:24.599Z,2.15
2023-03-15T12:09:52.541Z,3.63
2023-03-15T12:12:25.639Z,9.70
2023-03-15T12:15:06.238Z,6.10
2023-03-15T12:17:43.104Z,3.60
2023-03-15T12:20:18.004Z,7.45
2023-03-15T12:22:51.902Z,6.00
2023-03-15T12:25:31.166Z,5.13
2023-03-15T12:27:58.663Z,4.20
2023-03-15T12:30:33.673Z,7.53
2023-03-15T12:33:01.839Z,5.55
2023-03-15T12:35:32.650Z,6.57
2023-03-15T12:38:01.521Z,6.35
2023-03-15T12:40:28.455Z,4.47
2023-03-15T12:42:57.528Z,5.15
2023-03-15T12:45:27.618Z,1.38
2023-03-15T12:47:54.488Z,4.70
2023-03-15T12:50:43.837Z,5.28
2023-03-15T12:53:22.891Z,5.22
2023-03-15T12:55:56.527Z,5.68
2023-03-15T12:58:28.712Z,2.65
2023-03-15T13:00:56.018Z,4.57
2023-03-15T13:03:24.160Z,6.35
2023-03-15T13:06:12.818Z,4.15
2023-03-15T13:09:08.950Z,2.78
2023-03-15T13:11:59.261Z,6.05
2023-03-15T13:14:51.042Z,2.40
2023-03-15T13:17:33.566Z,3.00
2023-03-15T13:20:20.458Z,4.90
2023-03-15T13:22:55.439Z,4.63
2023-03-15T13:25:46.731Z,5.03
2023-03-15T13:28:23.873Z,2.83
2023-03-15T13:30:55.621Z,4.10
2023-03-15T13:33:30.057Z,2.45
2023-03-15T13:36:11.561Z,4.15
2023-03-15T13:38:43.625Z,2.30
2023-03-15T13:41:25.062Z,4.00
2023-03-15T13:43:54.003Z,4.63
2023-03-15T13:46:23.394Z,1.98
2023-03-15T13:48:51.262Z,3.25
2023-03-15T13:51:22.947Z,2.63
2023-03-15T13:53:52.700Z,2.85
2023-03-15T13:56:37.373Z,2.58
2023-03-15T13:59:12.448Z,3.13
2023-03-15T14:01:40.061Z,4.28
2023-03-15T14:04:17.521Z,5.70
2023-03-15T14:06:47.314Z,2.00
2023-03-15T14:09:24.478Z,5.78
2023-03-15T14:12:07.730Z,4.68
2023-03-15T14:14:38.291Z,3.55
2023-03-15T14:17:18.737Z,5.32
2023-03-15T14:19:54.548Z,2.47
2023-03-15T14:22:21.489Z,4.43
2023-03-15T14:24:50.288Z,4.22
2023-03-15T14:27:19.536Z,5.05
2023-03-15T14:29:54.616Z,5.57
2023-03-15T14:32:24.682Z,7.38
2023-03-15T14:34:56.801Z,5.85
2023-03-15T14:37:44.364Z,7.78
2023-03-15T14:40:28.555Z,3.53
2023-03-15T14:42:55.499Z,2.45
2023-03-15T14:45:22.469Z,3.97
2023-03-15T14:47:59.087Z,5.03
2023-03-15T14:50:28.770Z,5.80
2023-03-15T14:52:58.261Z,4.90
2023-03-15T14:55:29.410Z,6.45
2023-03-15T14:57:56.949Z,8.82
2023-03-15T15:00:24.889Z,4.10
2023-03-15T15:02:52.791Z,7.50
2023-03-15T15:05:34.053Z,5.82
2023-03-15T15:08:06.331Z,4.57
2023-03-15T15:10:34.822Z,3.90
2023-03-15T15:13:06.748Z,3.65
2023-03-15T15:15:43.996Z,4.68
2023-03-15T15:18:18.613Z,6.40
2023-03-15T15:20:46.407Z,5.00
2023-03-15T15:23:32.177Z,6.00
2023-03-15T15:26:01.661Z,4.22
2023-03-15T15:28:36.076Z,5.45
2023-03-15T15:31:08.572Z,7.22
2023-03-15T15:33:35.884Z,8.25
2023-03-15T15:36:03.723Z,4.93
2023-03-15T15:38:39.730Z,6.10
2023-03-15T15:41:15.126Z,3.83
2023-03-15T15:43:43.278Z,5.28
2023-03-15T15:46:12.470Z,4.78
2023-03-15T15:48:40.816Z,4.75
2023-03-15T15:51:23.214Z,5.88
2023-03-15T15:53:50.978Z,3.67
2023-03-15T15:56:18.449Z,6.55
2023-03-15T15:58:45.453Z,3.50
2023-03-15T16:01:14.114Z,5.25
2023-03-15T16:03:41.923Z,3.95
2023-03-15T16:06:19.196Z,6.38
2023-03-15T16:08:46.895Z,10.25
2023-03-15T16:11:15.209Z,6.28
2023-03-15T16:13:43.169Z,4.00
2023-03-15T16:16:15.733Z,9.00
2023-03-15T16:18:42.989Z,6.38
2023-03-15T16:21:24.590Z,16.95
2023-03-15T16:23:58.613Z,11.15
2023-03-15T16:26:26.193Z,6.53
2023-03-15T16:28:53.299Z,6.22
2023-03-15T16:31:22.067Z,7.45
2023-03-15T16:33:49.833Z,13.30
2023-03-15T16:36:20.987Z,5.57
2023-03-15T16:38:48.037Z,7.97
2023-03-15T16:41:15.821Z,4.57
2023-03-15T16:43:43.019Z,6.53
2023-03-15T16:46:12.593Z,31.50
2023-03-15T16:48:39.606Z,11.70
2023-03-15T16:51:06.651Z,38.70
2023-03-15T16:53:35.574Z,26.65
2023-03-15T16:56:03.985Z,5.22
2023-03-15T16:58:31.425Z,4.15
2023-03-15T17:00:58.403Z,5.03
2023-03-15T17:03:27.430Z,6.80
2023-03-15T17:05:54.838Z,5.57
2023-03-15T17:08:22.078Z,6.30
2023-03-15T17:10:49.478Z,4.65
2023-03-15T17:13:17.465Z,6.65
2023-03-15T17:15:45.342Z,4.72
2023-03-15T17:18:19.471Z,5.18
2023-03-15T17:20:47.525Z,5.57
2023-03-15T17:23:14.675Z,6.47
2023-03-15T17:25:42.715Z,5.57
2023-03-15T17:28:09.797Z,7.90
2023-03-15T17:30:37.374Z,9.68
2023-03-15T17:33:04.740Z,5.47
2023-03-15T17:35:38.912Z,6.85
2023-03-15T17:38:06.981Z,4.97
2023-03-15T17:40:35.108Z,5.68
2023-03-15T17:43:02.782Z,7.47
2023-03-15T17:45:31.535Z,6.82
2023-03-15T17:47:58.712Z,6.35
2023-03-15T17:50:29.885Z,5.47
2023-03-15T17:55:25.912Z,17.33
2023-03-15T17:57:55.503Z,16.85
2023-03-15T18:00:23.778Z,9.55
2023-03-15T18:02:55.736Z,10.98
2023-03-15T18:05:25.198Z,7.90
2023-03-15T18:07:58.717Z,7.15
2023-03-15T18:10:28.691Z,5.22
2023-03-15T18:12:55.775Z,6.43
2023-03-15T18:15:23.835Z,5.75
2023-03-15T18:17:50.956Z,6.72
2023-03-15T18:20:18.607Z,10.68
2023-03-15T18:22:45.601Z,6.15
2023-03-15T18:25:23.486Z,6.15
2023-03-15T18:27:50.538Z,6.88
2023-03-15T18:30:19.037Z,6.00
2023-03-15T18:32:46.125Z,8.27
2023-03-15T18:35:18.152Z,6.32
2023-03-15T18:37:45.423Z,6.32
2023-03-15T18:40:13.872Z,9.13
2023-03-15T18:42:41.605Z,5.68
2023-03-15T18:45:22.447Z,5.93
2023-03-15T18:47:49.594Z,7.30
2023-03-15T18:50:17.184Z,6.47
2023-03-15T18:52:44.557Z,9.60
2023-03-15T18:55:12.346Z,6.20
2023-03-15T18:57:41.664Z,7.75
2023-03-15T19:00:13.417Z,5.75
2023-03-15T19:02:45.080Z,6.53
2023-03-15T19:05:12.894Z,4.97
2023-03-15T19:07:40.270Z,5.68
2023-03-15T19:10:08.914Z,4.85
2023-03-15T19:12:36.926Z,4.25
2023-03-15T19:15:05.802Z,5.82
2023-03-15T19:17:33.546Z,7.00
2023-03-15T19:20:01.137Z,8.48
2023-03-15T19:22:31.088Z,13.20
2023-03-15T19:24:58.275Z,7.28
2023-03-15T19:27:25.660Z,8.23
2023-03-15T19:29:52.674Z,7.75
2023-03-15T19:32:20.957Z,6.70
2023-03-15T19:34:48.190Z,4.55
2023-03-15T19:37:15.404Z,4.75
2023-03-15T19:39:42.520Z,6.47
2023-03-15T19:42:09.612Z,5.47
2023-03-15T19:44:36.794Z,4.72
2023-03-15T19:47:04.092Z,5.53
2023-03-15T19:49:31.188Z,5.07
2023-03-15T19:51:59.274Z,4.90
2023-03-15T19:54:26.396Z,5.18
2023-03-15T19:56:54.605Z,3.88
2023-03-15T19:59:21.719Z,7.55
2023-03-15T20:01:49.187Z,4.47
2023-03-15T20:04:16.469Z,4.63
2023-03-15T20:06:43.609Z,5.00
2023-03-15T20:09:12.014Z,4.93
2023-03-15T20:11:39.126Z,5.28
2023-03-15T20:14:06.399Z,5.45
2023-03-15T20:16:33.513Z,4.25
2023-03-15T20:19:01.109Z,6.88
2023-03-15T20:21:29.488Z,5.25
2023-03-15T20:23:56.780Z,3.70
2023-03-15T20:26:25.276Z,7.45
2023-03-15T20:28:52.627Z,5.72
2023-03-15T20:31:19.881Z,5.78
2023-03-15T20:33:48.607Z,5.95
2023-03-15T20:36:16.383Z,7.13
2023-03-15T20:38:44.229Z,8.15
2023-03-15T20:41:13.961Z,6.38
2023-03-15T20:43:41.551Z,6.43
2023-03-15T20:46:10.036Z,5.95
2023-03-15T20:48:37.176Z,7.53
2023-03-15T20:51:04.626Z,12.55
2023-03-15T20:53:32.899Z,11.90
2023-03-15T20:56:00.879Z,8.40
2023-03-15T20:58:28.036Z,9.10
2023-03-15T21:01:03.396Z,8.63
2023-03-15T21:03:33.246Z,6.95
2023-03-15T21:06:01.135Z,8.35
2023-03-15T21:08:28.488Z,7.78
2023-03-15T21:10:55.760Z,5.53
2023-03-15T21:13:22.950Z,6.15
2023-03-15T21:15:52.087Z,7.13
2023-03-15T21:18:21.854Z,6.80
2023-03-15T21:21:02.509Z,11.10
2023-03-15T21:23:33.042Z,11.88
2023-03-15T21:26:02.166Z,10.63
2023-03-15T21:28:29.498Z,10.90
2023-03-15T21:30:56.686Z,10.57
2023-03-15T21:33:25.131Z,12.00
2023-03-15T21:35:52.577Z,13.30
2023-03-15T21:38:20.083Z,15.20
2023-03-15T21:40:47.834Z,12.00
2023-03-15T21:43:15.013Z,11.35
2023-03-15T21:45:42.626Z,9.98
2023-03-15T21:48:09.718Z,7.22
2023-03-15T21:50:36.746Z,5.22
2023-03-15T21:53:03.980Z,6.43
2023-03-15T21:55:33.606Z,5.47
2023-03-15T21:58:07.399Z,7.75
2023-03-15T22:00:34.830Z,5.55
2023-03-15T22:03:01.821Z,5.40
2023-03-15T22:05:28.895Z,5.90
2023-03-15T22:07:55.921Z,5.30
2023-03-15T22:10:23.380Z,5.47
2023-03-15T22:12:54.017Z,5.05
2023-03-15T22:15:22.117Z,5.40
2023-03-15T22:17:49.102Z,7.45
2023-03-15T22:20:16.932Z,8.25
2023-03-15T22:22:45.050Z,7.25
2023-03-15T22:25:12.820Z,6.65
2023-03-15T22:27:40.347Z,5.65
2023-03-15T22:30:08.665Z,6.03
2023-03-15T22:32:35.670Z,6.65
2023-03-15T22:35:02.734Z,5.95
2023-03-15T22:37:29.745Z,7.82
2023-03-15T22:39:56.869Z,8.13
2023-03-15T22:42:23.896Z,9.32
2023-03-15T22:44:51.007Z,10.10
2023-03-15T22:47:18.093Z,9.68
2023-03-15T22:49:45.041Z,11.20
2023-03-15T22:52:12.178Z,9.63
2023-03-15T22:54:42.816Z,11.85
2023-03-15T22:57:11.453Z,13.40
2023-03-15T22:59:38.963Z,10.75
2023-03-15T23:02:07.187Z,11.55
2023-03-15T23:04:34.361Z,11.75
2023-03-15T23:07:01.805Z,14.10
2023-03-15T23:09:28.861Z,10.48
2023-03-15T23:11:55.856Z,9.80
2023-03-15T23:14:22.837Z,10.18
2023-03-15T23:16:49.849Z,13.90
2023-03-15T23:19:16.989Z,8.45
2023-03-15T23:21:44.032Z,9.07
2023-03-15T23:24:13.890Z,9.15
2023-03-15T23:26:40.967Z,7.55
2023-03-15T23:29:10.807Z,12.00
2023-03-15T23:31:38.599Z,14.65
2023-03-15T23:34:06.102Z,11.27
2023-03-15T23:36:33.717Z,11.75
2023-03-15T23:39:00.699Z,10.35
2023-03-15T23:41:27.753Z,10.15
2023-03-15T23:43:54.692Z,7.38
2023-03-15T23:46:23.680Z,10.98
2023-03-15T23:48:52.436Z,8.82
2023-03-15T23:51:19.908Z,10.75
2023-03-15T23:53:46.891Z,9.18
2023-03-15T23:56:13.854Z,9.63
2023-03-15T23:58:40.936Z,9.63
